aviador You're here:

KTYS Decoded Metar

KNOXVILLE in TN, USA
Report Time2017-11-23 02:53:00
UTC Time2017-11-23 03:24:36
Flight Rules vfr VFR
Wind020° at 06 kt
W.Decomp.*RWY 05: 5.3 kt HW 2.7 kt LCW
W.Rank020° ranks 5
Current wind is above 020° avg. (5.9)
Visibility9999 m
Phenomena:N/A
Clouds:N/A
Expected CloudBase > 2,000 ft AGL from Temp-Dew spread
CeilingNone
Temp04°C (ISA -9)
Dew Point-1°C (70% RH)
AAT-0.3°C
QNH1021 hPa
Density Alt-289 ft
Elevation991 ft
Report Wrong Elevation
Raw Report
METAR KTYS 230253Z 02006KT 10SM CLR 04/M01 A3016 RMK A02 SLP216 T00391011=

Extra information for KTYS:More info

Metar Taf Metar & Taf Last 4 Metars F.Rules Stats Wind Profile Meteogram Temp Stats Airport Information Weather charts Add Link Nearby VenuesMetar ALERT Operation Metar Decoded Social comments

AIRNAV info for KTYS